Mont-Louis, Canada
Current Conditions -  °F | °C
As of 7:00 PM on Sunday 21 Dec 2014 (Local Time) from CYGP Reporting Station
Overcast Overcast  
Wind Chill: 21°   Ceiling: 1200
Heat Index: 21°   Visibility: 15mi
Dew Point: 18°   Wind: 3mph
Humidity: 86%   Direction: 360°N
Pressure: 30.42"   Gusts: NA
Location:  49.22°N, 65.75°W
Report Text: CYGP 220000Z 36003KT 15SM OVC012 M06/M08 A3042 RMK SC8 SLP302
Loading
Personal Weather Stations






























Interactive Weather Map New forecast layout! Learn more

10-Day Weather Forecast

Advertisements
Track Severe Weather on mobile